Puig, Spain
Current Conditions -  °F | °C
As of 9:00 AM on Friday 21 Nov 2014 (Local Time) from LEBT Reporting Station
Clear Clear  
Wind Chill: 14°   Ceiling: Unl
Heat Index: 14°   Visibility: 6mi
Dew Point: 11°   Wind: 3mph
Humidity: 82%   Direction: 360°N
Pressure: 30.12"   Gusts: NA
Location:  39.59°N, 0.3°W
Report Text: LEBT 210800Z AUTO 36003KT CAVOK 14/11 Q1020
Loading
Personal Weather Stations






























Interactive Weather Map New forecast layout! Learn more

10-Day Weather Forecast

Advertisements
Track Severe Weather on mobile